createdAt,value
2022-12-28T00:00:29.239Z,3.0
2022-12-28T00:05:39.141Z,2.9
2022-12-28T00:10:19.595Z,2.8
2022-12-28T00:15:24.172Z,2.3
2022-12-28T00:20:33.169Z,2.3
2022-12-28T00:25:19.698Z,3.0
2022-12-28T00:30:27.369Z,2.4
2022-12-28T00:35:32.128Z,2.6
2022-12-28T00:40:24.245Z,3.1
2022-12-28T00:45:27.624Z,2.6
2022-12-28T00:50:18.092Z,2.3
2022-12-28T00:55:25.386Z,2.6
2022-12-28T01:00:32.491Z,2.6
2022-12-28T01:05:18.048Z,2.3
2022-12-28T01:10:23.562Z,2.2
2022-12-28T01:15:29.315Z,2.5
2022-12-28T01:20:23.082Z,2.6
2022-12-28T01:25:24.602Z,2.6
2022-12-28T01:30:30.465Z,3.5
2022-12-28T01:35:18.488Z,2.4
2022-12-28T01:40:34.073Z,2.4
2022-12-28T01:45:31.570Z,3.2
2022-12-28T01:50:19.908Z,2.4
2022-12-28T01:55:27.000Z,2.6
2022-12-28T02:00:44.262Z,2.5
2022-12-28T02:05:26.676Z,2.7
2022-12-28T02:10:44.297Z,3.0
2022-12-28T02:15:32.840Z,2.6
2022-12-28T02:20:22.657Z,2.5
2022-12-28T02:25:27.659Z,2.4
2022-12-28T02:30:16.290Z,2.5
2022-12-28T02:35:22.143Z,3.0
2022-12-28T02:40:29.995Z,2.7
2022-12-28T02:45:17.799Z,3.1
2022-12-28T02:50:23.241Z,2.9
2022-12-28T02:55:29.450Z,3.5
2022-12-28T03:00:21.864Z,3.5
2022-12-28T03:05:29.142Z,3.2
2022-12-28T03:10:38.770Z,2.9
2022-12-28T03:15:19.891Z,3.2
2022-12-28T03:20:27.782Z,3.8
2022-12-28T03:25:32.514Z,3.7
2022-12-28T03:30:20.667Z,4.2
2022-12-28T03:35:27.309Z,4.7
2022-12-28T03:40:51.643Z,5.0
2022-12-28T03:45:44.256Z,4.2
2022-12-28T03:50:28.143Z,4.3
2022-12-28T03:55:17.482Z,4.5
2022-12-28T04:00:24.886Z,4.9
2022-12-28T04:05:28.931Z,5.6
2022-12-28T04:10:19.251Z,6.8
2022-12-28T04:15:24.474Z,6.4
2022-12-28T04:20:30.627Z,5.1
2022-12-28T04:25:20.957Z,4.9
2022-12-28T04:30:26.861Z,4.6
2022-12-28T04:35:31.449Z,4.7
2022-12-28T04:40:32.003Z,5.0
2022-12-28T04:45:28.808Z,4.9
2022-12-28T04:50:37.813Z,5.4
2022-12-28T04:55:32.645Z,6.5
2022-12-28T05:00:29.581Z,8.1
2022-12-28T05:05:35.750Z,9.6
2022-12-28T05:10:22.642Z,8.3
2022-12-28T05:15:29.800Z,7.7
2022-12-28T05:20:19.703Z,10.3
2022-12-28T05:25:24.541Z,10.1
2022-12-28T05:30:30.731Z,10.5
2022-12-28T05:35:18.280Z,13.1
2022-12-28T05:40:27.905Z,15.1
2022-12-28T05:45:30.489Z,13.8
2022-12-28T05:50:19.805Z,14.1
2022-12-28T05:55:25.361Z,13.4
2022-12-28T06:00:34.025Z,13.5
2022-12-28T06:05:26.614Z,12.1
2022-12-28T06:10:29.910Z,10.5
2022-12-28T06:15:37.655Z,12.0
2022-12-28T06:20:22.300Z,11.2
2022-12-28T06:25:28.036Z,11.0
2022-12-28T06:30:18.234Z,9.7
2022-12-28T06:35:23.179Z,9.2
2022-12-28T06:41:02.500Z,9.0
2022-12-28T06:45:19.894Z,11.4
2022-12-28T06:50:24.147Z,13.3
2022-12-28T06:55:30.651Z,12.5
2022-12-28T07:00:24.214Z,12.0
2022-12-28T07:05:27.305Z,11.7
2022-12-28T07:10:32.812Z,12.8
2022-12-28T07:15:22.963Z,13.5
2022-12-28T07:20:28.963Z,13.2
2022-12-28T07:25:32.214Z,14.1
2022-12-28T07:30:20.904Z,21.7
2022-12-28T07:35:26.760Z,21.5
2022-12-28T07:40:41.961Z,14.2
2022-12-28T07:45:21.913Z,13.6
2022-12-28T07:50:30.460Z,13.6
2022-12-28T07:55:16.664Z,13.7
2022-12-28T08:00:27.207Z,14.5
2022-12-28T08:05:28.497Z,14.3
2022-12-28T08:10:17.749Z,14.9
2022-12-28T08:15:23.674Z,14.1
2022-12-28T08:20:30.765Z,14.0
2022-12-28T08:25:18.396Z,13.0
2022-12-28T08:30:28.756Z,11.4
2022-12-28T08:35:31.513Z,10.9
2022-12-28T08:40:35.509Z,11.1
2022-12-28T08:45:27.884Z,11.3
2022-12-28T08:50:34.385Z,10.9
2022-12-28T08:55:21.823Z,11.5
2022-12-28T09:00:43.126Z,10.3
2022-12-28T09:05:39.353Z,10.8
2022-12-28T09:10:22.750Z,10.3
2022-12-28T09:15:17.590Z,9.4
2022-12-28T09:20:19.802Z,7.9
2022-12-28T09:25:23.005Z,7.8
2022-12-28T09:30:28.800Z,8.1
2022-12-28T09:35:18.099Z,6.9
2022-12-28T09:40:27.368Z,6.2
2022-12-28T09:45:29.938Z,4.9
2022-12-28T09:50:19.468Z,4.5
2022-12-28T09:55:25.249Z,4.3
2022-12-28T10:00:38.571Z,3.8
2022-12-28T10:05:21.095Z,3.5
2022-12-28T10:10:26.708Z,3.3
2022-12-28T10:15:37.519Z,3.4
2022-12-28T10:20:22.151Z,3.3
2022-12-28T10:25:27.236Z,3.3
2022-12-28T10:30:34.209Z,3.3
2022-12-28T10:35:21.380Z,3.3
2022-12-28T10:40:30.220Z,3.2
2022-12-28T10:45:19.549Z,3.2
2022-12-28T10:50:37.033Z,3.1
2022-12-28T10:55:30.166Z,3.1
2022-12-28T11:00:28.528Z,3.0
2022-12-28T11:05:24.753Z,2.8
2022-12-28T11:10:30.531Z,2.8
2022-12-28T11:15:21.429Z,2.4
2022-12-28T11:20:24.813Z,2.7
2022-12-28T11:25:33.077Z,2.5
2022-12-28T11:30:20.355Z,2.5
2022-12-28T11:35:27.279Z,2.5
2022-12-28T11:40:47.654Z,3.7
2022-12-28T11:45:20.951Z,2.1
2022-12-28T11:50:29.112Z,2.5
2022-12-28T11:55:34.053Z,2.3
2022-12-28T12:00:24.633Z,2.1
2022-12-28T12:05:27.471Z,2.0
2022-12-28T12:10:17.839Z,2.0
2022-12-28T12:15:31.527Z,2.0
2022-12-28T12:20:43.741Z,2.0
2022-12-28T12:25:20.649Z,2.3
2022-12-28T12:30:24.837Z,2.3
2022-12-28T12:35:37.285Z,3.9
2022-12-28T12:40:30.182Z,3.6
2022-12-28T12:45:25.290Z,2.7
2022-12-28T12:50:36.723Z,2.5
2022-12-28T12:55:21.540Z,2.5
2022-12-28T13:00:48.516Z,2.1
2022-12-28T13:05:31.275Z,2.2
2022-12-28T13:10:24.059Z,2.6
2022-12-28T13:15:27.905Z,2.4
2022-12-28T13:20:40.519Z,2.5
2022-12-28T13:25:22.675Z,2.6
2022-12-28T13:30:29.046Z,2.2
2022-12-28T13:35:43.368Z,2.6
2022-12-28T13:40:29.292Z,2.1
2022-12-28T13:45:33.622Z,2.4
2022-12-28T13:50:24.284Z,9.7
2022-12-28T13:55:25.722Z,10.6
2022-12-28T14:00:38.389Z,3.7
2022-12-28T14:05:47.757Z,4.5
2022-12-28T14:10:33.246Z,33.5
2022-12-28T14:15:45.261Z,3.6
2022-12-28T14:20:28.469Z,4.3
2022-12-28T14:30:32.516Z,3.0
2022-12-28T14:40:39.900Z,4.1
2022-12-28T15:15:18.270Z,4.8
2022-12-28T15:20:28.195Z,3.3
2022-12-28T15:25:42.841Z,4.5
2022-12-28T15:30:28.732Z,3.7
2022-12-28T15:35:29.977Z,4.5
2022-12-28T15:40:58.693Z,5.2
2022-12-28T15:45:23.638Z,2.7
2022-12-28T15:50:28.596Z,4.3
2022-12-28T15:55:32.222Z,3.4
2022-12-28T16:00:24.231Z,4.1
2022-12-28T16:05:27.310Z,3.3
2022-12-28T16:10:34.450Z,3.2
2022-12-28T16:15:40.348Z,3.0
2022-12-28T16:20:41.440Z,2.9
2022-12-28T16:25:34.897Z,2.7
2022-12-28T16:30:34.179Z,3.0
2022-12-28T16:35:30.070Z,3.1
2022-12-28T16:40:21.098Z,2.8
2022-12-28T16:45:45.218Z,2.6
2022-12-28T16:50:38.975Z,4.0
2022-12-28T16:55:40.123Z,24.8
2022-12-28T17:00:29.115Z,7.6
2022-12-28T17:05:37.361Z,11.8
2022-12-28T17:10:32.428Z,3.6
2022-12-28T17:15:26.695Z,3.5
2022-12-28T17:20:36.368Z,3.8
2022-12-28T17:25:21.310Z,4.4
2022-12-28T17:30:27.990Z,4.1
2022-12-28T17:35:33.341Z,3.0
2022-12-28T17:40:53.354Z,4.3
2022-12-28T17:45:28.998Z,9.8
2022-12-28T17:50:18.132Z,4.6
2022-12-28T17:55:23.863Z,9.1
2022-12-28T18:00:39.467Z,5.5
2022-12-28T18:05:19.600Z,3.3
2022-12-28T18:10:24.680Z,2.5
2022-12-28T18:15:33.162Z,2.9
2022-12-28T18:20:19.826Z,2.7
2022-12-28T18:25:24.931Z,3.3
2022-12-28T18:30:31.442Z,2.4
2022-12-28T18:35:19.589Z,2.5
2022-12-28T18:40:27.514Z,2.5
2022-12-28T18:45:32.294Z,2.7
2022-12-28T18:50:20.792Z,2.6
2022-12-28T18:55:26.991Z,3.4
2022-12-28T19:00:33.939Z,3.3
2022-12-28T19:05:24.397Z,3.4
2022-12-28T19:15:21.234Z,3.2
2022-12-28T19:20:29.389Z,3.1
2022-12-28T19:25:28.740Z,2.8
2022-12-28T19:30:24.780Z,3.0
2022-12-28T19:35:23.930Z,2.8
2022-12-28T19:40:37.358Z,3.3
2022-12-28T19:45:27.060Z,3.0
2022-12-28T19:50:26.012Z,3.3
2022-12-28T19:55:30.906Z,3.1
2022-12-28T20:00:27.743Z,2.6
2022-12-28T20:05:26.211Z,2.6
2022-12-28T20:10:33.415Z,2.9
2022-12-28T20:21:09.013Z,2.7
2022-12-28T20:25:33.373Z,2.8
2022-12-28T20:30:22.650Z,2.9
2022-12-28T20:35:27.718Z,2.7
2022-12-28T20:40:18.851Z,3.6
2022-12-28T20:45:22.558Z,2.6
2022-12-28T20:50:29.020Z,2.6
2022-12-28T20:55:17.654Z,2.2
2022-12-28T21:00:28.593Z,3.5
2022-12-28T21:05:30.738Z,20.7
2022-12-28T21:10:20.681Z,5.8
2022-12-28T21:15:26.393Z,2.6
2022-12-28T21:20:39.102Z,2.4
2022-12-28T21:25:21.126Z,2.3
2022-12-28T21:30:27.244Z,2.5
2022-12-28T21:35:34.802Z,2.5
2022-12-28T21:40:38.224Z,2.8
2022-12-28T21:45:27.984Z,2.6
2022-12-28T21:50:34.093Z,2.6
2022-12-28T21:55:23.779Z,3.1
2022-12-28T22:00:40.843Z,2.6
2022-12-28T22:05:17.891Z,2.3
2022-12-28T22:10:23.397Z,2.7
2022-12-28T22:15:29.514Z,2.8
2022-12-28T22:20:18.841Z,2.6
2022-12-28T22:25:23.511Z,2.5
2022-12-28T22:30:29.748Z,2.6
2022-12-28T22:35:18.398Z,2.5
2022-12-28T22:40:27.022Z,2.3
2022-12-28T22:45:30.711Z,2.6
2022-12-28T22:50:19.772Z,2.3
2022-12-28T22:55:26.760Z,2.6
2022-12-28T23:00:35.059Z,2.6
2022-12-28T23:05:21.054Z,2.2
2022-12-28T23:10:27.620Z,2.3
2022-12-28T23:15:34.216Z,2.1
2022-12-28T23:20:24.561Z,9.0
2022-12-28T23:25:28.469Z,12.6
2022-12-28T23:30:17.878Z,2.1
2022-12-28T23:35:23.133Z,1.9
2022-12-28T23:40:29.473Z,1.8
2022-12-28T23:45:18.533Z,1.8
2022-12-28T23:50:24.205Z,1.5
2022-12-28T23:55:30.291Z,1.6
